sensor_id;sensor_type;location;lat;lon;timestamp;pressure;altitude;pressure_sealevel;temperature;humidity
37486;BME280;23341;50.296;18.960;2023-05-20T00:01:04;52279.72;;;-144.43;100.00
37486;BME280;23341;50.296;18.960;2023-05-20T00:06:08;52303.72;;;-144.43;100.00
37486;BME280;23341;50.296;18.960;2023-05-20T00:11:13;52317.72;;;-144.43;100.00
37486;BME280;23341;50.296;18.960;2023-05-20T00:16:19;52333.72;;;-144.43;100.00
37486;BME280;23341;50.296;18.960;2023-05-20T00:21:23;52299.72;;;-144.43;100.00
37486;BME280;23341;50.296;18.960;2023-05-20T00:26:28;52249.72;;;-144.43;100.00
37486;BME280;23341;50.296;18.960;2023-05-20T00:31:34;52299.72;;;-144.43;100.00
37486;BME280;23341;50.296;18.960;2023-05-20T00:36:40;52273.72;;;-144.43;100.00
37486;BME280;23341;50.296;18.960;2023-05-20T00:41:44;52257.72;;;-144.43;100.00
37486;BME280;23341;50.296;18.960;2023-05-20T00:46:50;52287.72;;;-144.43;100.00
37486;BME280;23341;50.296;18.960;2023-05-20T00:51:55;52315.72;;;-144.43;100.00
37486;BME280;23341;50.296;18.960;2023-05-20T00:56:59;52261.72;;;-144.43;100.00
37486;BME280;23341;50.296;18.960;2023-05-20T01:02:07;52241.72;;;-144.43;100.00
37486;BME280;23341;50.296;18.960;2023-05-20T01:07:12;52291.72;;;-144.43;100.00
37486;BME280;23341;50.296;18.960;2023-05-20T01:12:21;52293.72;;;-144.43;100.00
37486;BME280;23341;50.296;18.960;2023-05-20T01:17:30;52269.72;;;-144.43;100.00
37486;BME280;23341;50.296;18.960;2023-05-20T01:22:38;52249.72;;;-144.43;100.00
37486;BME280;23341;50.296;18.960;2023-05-20T01:27:50;52293.72;;;-144.43;100.00
37486;BME280;23341;50.296;18.960;2023-05-20T01:32:59;52271.72;;;-144.43;100.00
37486;BME280;23341;50.296;18.960;2023-05-20T01:38:06;52309.72;;;-144.43;100.00
37486;BME280;23341;50.296;18.960;2023-05-20T01:43:11;52257.72;;;-144.43;100.00
37486;BME280;23341;50.296;18.960;2023-05-20T01:48:19;52279.72;;;-144.43;100.00
37486;BME280;23341;50.296;18.960;2023-05-20T01:53:25;52281.72;;;-144.43;100.00
37486;BME280;23341;50.296;18.960;2023-05-20T01:58:30;52267.72;;;-144.43;100.00
37486;BME280;23341;50.296;18.960;2023-05-20T02:03:34;52265.72;;;-144.43;100.00
37486;BME280;23341;50.296;18.960;2023-05-20T02:08:40;52279.72;;;-144.43;100.00
37486;BME280;23341;50.296;18.960;2023-05-20T02:13:45;52317.72;;;-144.43;100.00
37486;BME280;23341;50.296;18.960;2023-05-20T02:18:49;52277.72;;;-144.43;100.00
37486;BME280;23341;50.296;18.960;2023-05-20T02:23:56;52255.72;;;-144.43;100.00
37486;BME280;23341;50.296;18.960;2023-05-20T02:29:01;52237.72;;;-144.43;100.00
37486;BME280;23341;50.296;18.960;2023-05-20T02:34:05;52303.72;;;-144.43;100.00
37486;BME280;23341;50.296;18.960;2023-05-20T02:39:11;52231.72;;;-144.43;100.00
37486;BME280;23341;50.296;18.960;2023-05-20T02:44:15;52255.72;;;-144.43;100.00
37486;BME280;23341;50.296;18.960;2023-05-20T02:49:20;52275.72;;;-144.43;100.00
37486;BME280;23341;50.296;18.960;2023-05-20T02:54:26;52311.72;;;-144.43;100.00
37486;BME280;23341;50.296;18.960;2023-05-20T02:59:30;52277.72;;;-144.43;100.00
37486;BME280;23341;50.296;18.960;2023-05-20T03:04:34;52301.72;;;-144.43;100.00
37486;BME280;23341;50.296;18.960;2023-05-20T03:09:42;52321.72;;;-144.43;100.00
37486;BME280;23341;50.296;18.960;2023-05-20T03:14:46;52329.72;;;-144.43;100.00
37486;BME280;23341;50.296;18.960;2023-05-20T03:19:51;52341.72;;;-144.43;100.00
37486;BME280;23341;50.296;18.960;2023-05-20T03:24:58;52363.72;;;-144.43;100.00
37486;BME280;23341;50.296;18.960;2023-05-20T03:30:05;52333.72;;;-144.43;100.00
37486;BME280;23341;50.296;18.960;2023-05-20T03:35:09;52363.72;;;-144.43;100.00
37486;BME280;23341;50.296;18.960;2023-05-20T03:40:16;52395.72;;;-144.43;100.00
37486;BME280;23341;50.296;18.960;2023-05-20T03:45:20;52365.72;;;-144.43;100.00
37486;BME280;23341;50.296;18.960;2023-05-20T03:50:42;52395.72;;;-144.43;100.00
37486;BME280;23341;50.296;18.960;2023-05-20T03:55:49;52365.72;;;-144.43;100.00
37486;BME280;23341;50.296;18.960;2023-05-20T04:00:54;52361.72;;;-144.43;100.00
37486;BME280;23341;50.296;18.960;2023-05-20T04:05:59;52397.72;;;-144.43;100.00
37486;BME280;23341;50.296;18.960;2023-05-20T04:11:05;52383.72;;;-144.43;100.00
37486;BME280;23341;50.296;18.960;2023-05-20T04:16:09;52375.72;;;-144.43;100.00
37486;BME280;23341;50.296;18.960;2023-05-20T04:21:14;52415.72;;;-144.43;100.00
37486;BME280;23341;50.296;18.960;2023-05-20T04:26:21;52461.72;;;-144.43;100.00
37486;BME280;23341;50.296;18.960;2023-05-20T04:31:25;52469.72;;;-144.43;100.00
37486;BME280;23341;50.296;18.960;2023-05-20T04:36:30;52433.72;;;-144.43;100.00
37486;BME280;23341;50.296;18.960;2023-05-20T04:41:38;52369.72;;;-144.43;100.00
37486;BME280;23341;50.296;18.960;2023-05-20T04:46:43;52423.72;;;-144.43;100.00
37486;BME280;23341;50.296;18.960;2023-05-20T04:51:49;52459.72;;;-144.43;100.00
37486;BME280;23341;50.296;18.960;2023-05-20T04:56:55;52435.72;;;-144.43;100.00
37486;BME280;23341;50.296;18.960;2023-05-20T05:01:59;52401.72;;;-144.43;100.00
37486;BME280;23341;50.296;18.960;2023-05-20T05:07:04;52467.72;;;-144.43;100.00
37486;BME280;23341;50.296;18.960;2023-05-20T05:12:10;52453.72;;;-144.43;100.00
37486;BME280;23341;50.296;18.960;2023-05-20T05:17:15;52505.72;;;-144.43;100.00
37486;BME280;23341;50.296;18.960;2023-05-20T05:22:19;52429.72;;;-144.43;100.00
37486;BME280;23341;50.296;18.960;2023-05-20T05:27:25;52443.72;;;-144.43;100.00
37486;BME280;23341;50.296;18.960;2023-05-20T05:32:30;52425.72;;;-144.43;100.00
37486;BME280;23341;50.296;18.960;2023-05-20T05:37:34;52533.72;;;-144.43;100.00
37486;BME280;23341;50.296;18.960;2023-05-20T05:42:41;52481.72;;;-144.43;100.00
37486;BME280;23341;50.296;18.960;2023-05-20T05:47:45;52485.72;;;-144.43;100.00
37486;BME280;23341;50.296;18.960;2023-05-20T05:52:50;52445.72;;;-144.43;100.00
37486;BME280;23341;50.296;18.960;2023-05-20T05:57:57;52453.72;;;-144.43;100.00
37486;BME280;23341;50.296;18.960;2023-05-20T06:03:03;52469.72;;;-144.43;100.00
37486;BME280;23341;50.296;18.960;2023-05-20T06:08:11;52477.72;;;-144.43;100.00
37486;BME280;23341;50.296;18.960;2023-05-20T06:13:17;52467.72;;;-144.43;100.00
37486;BME280;23341;50.296;18.960;2023-05-20T06:18:21;52493.72;;;-144.43;100.00
37486;BME280;23341;50.296;18.960;2023-05-20T06:23:30;52473.72;;;-144.43;100.00
37486;BME280;23341;50.296;18.960;2023-05-20T06:28:40;52441.72;;;-144.43;100.00
37486;BME280;23341;50.296;18.960;2023-05-20T06:33:44;52447.72;;;-144.43;100.00
37486;BME280;23341;50.296;18.960;2023-05-20T06:38:49;52549.72;;;-144.43;100.00
37486;BME280;23341;50.296;18.960;2023-05-20T06:43:55;52585.75;;;-144.43;100.00
37486;BME280;23341;50.296;18.960;2023-05-20T06:49:38;52553.72;;;-144.43;100.00
37486;BME280;23341;50.296;18.960;2023-05-20T06:54:43;52599.75;;;-144.43;100.00
37486;BME280;23341;50.296;18.960;2023-05-20T06:59:50;52633.75;;;-144.43;100.00
37486;BME280;23341;50.296;18.960;2023-05-20T07:04:56;52613.75;;;-144.43;100.00
37486;BME280;23341;50.296;18.960;2023-05-20T07:10:00;52601.75;;;-144.43;100.00
37486;BME280;23341;50.296;18.960;2023-05-20T07:15:10;52653.75;;;-144.43;100.00
37486;BME280;23341;50.296;18.960;2023-05-20T07:20:15;52561.72;;;-144.43;100.00
37486;BME280;23341;50.296;18.960;2023-05-20T07:25:20;52615.75;;;-144.43;100.00
37486;BME280;23341;50.296;18.960;2023-05-20T07:30:26;52633.75;;;-144.43;100.00
37486;BME280;23341;50.296;18.960;2023-05-20T07:35:48;52665.75;;;-144.43;100.00
37486;BME280;23341;50.296;18.960;2023-05-20T07:40:53;52731.75;;;-144.43;100.00
37486;BME280;23341;50.296;18.960;2023-05-20T07:45:59;52679.75;;;-144.43;100.00
37486;BME280;23341;50.296;18.960;2023-05-20T07:51:03;52707.75;;;-144.43;100.00
37486;BME280;23341;50.296;18.960;2023-05-20T07:56:08;52761.75;;;-144.43;100.00
37486;BME280;23341;50.296;18.960;2023-05-20T08:01:15;52905.78;;;-144.43;98.03
37486;BME280;23341;50.296;18.960;2023-05-20T08:06:19;52799.78;;;-144.43;97.32
37486;BME280;23341;50.296;18.960;2023-05-20T08:11:26;52897.78;;;-144.43;97.28
37486;BME280;23341;50.296;18.960;2023-05-20T08:16:34;52947.81;;;-144.43;95.04
37486;BME280;23341;50.296;18.960;2023-05-20T08:21:39;52945.81;;;-144.43;93.72
37486;BME280;23341;50.296;18.960;2023-05-20T08:26:44;52913.78;;;-144.43;93.55
37486;BME280;23341;50.296;18.960;2023-05-20T08:31:52;52975.81;;;-144.43;92.74
37486;BME280;23341;50.296;18.960;2023-05-20T08:36:56;52951.81;;;-144.43;93.81
37486;BME280;23341;50.296;18.960;2023-05-20T08:42:01;53039.81;;;-144.43;90.66
37486;BME280;23341;50.296;18.960;2023-05-20T08:47:10;52961.81;;;-144.43;89.63
37486;BME280;23341;50.296;18.960;2023-05-20T08:52:17;52917.78;;;-144.43;92.11
37486;BME280;23341;50.296;18.960;2023-05-20T08:57:24;53001.81;;;-144.43;89.15
37486;BME280;23341;50.296;18.960;2023-05-20T09:02:31;53015.81;;;-144.43;87.39
37486;BME280;23341;50.296;18.960;2023-05-20T09:07:35;53211.88;;;-144.43;84.30
37486;BME280;23341;50.296;18.960;2023-05-20T09:12:39;53045.81;;;-144.43;87.49
37486;BME280;23341;50.296;18.960;2023-05-20T09:17:48;53107.84;;;-144.43;87.23
37486;BME280;23341;50.296;18.960;2023-05-20T09:22:53;52913.78;;;-144.43;89.35
37486;BME280;23341;50.296;18.960;2023-05-20T09:27:57;53003.81;;;-144.43;88.67
37486;BME280;23341;50.296;18.960;2023-05-20T09:33:04;53057.81;;;-144.43;88.26
37486;BME280;23341;50.296;18.960;2023-05-20T09:38:10;53153.84;;;-144.43;86.97
37486;BME280;23341;50.296;18.960;2023-05-20T09:43:15;53167.84;;;-144.43;86.54
37486;BME280;23341;50.296;18.960;2023-05-20T09:48:22;53251.88;;;-144.43;86.30
37486;BME280;23341;50.296;18.960;2023-05-20T09:53:27;53161.84;;;-144.43;84.67
37486;BME280;23341;50.296;18.960;2023-05-20T09:58:32;53221.88;;;-144.43;84.12
37486;BME280;23341;50.296;18.960;2023-05-20T10:03:40;53273.88;;;-144.43;83.17
37486;BME280;23341;50.296;18.960;2023-05-20T10:08:59;53329.91;;;-144.43;82.34
37486;BME280;23341;50.296;18.960;2023-05-20T10:19:32;53121.84;;;-144.43;84.52
37486;BME280;23341;50.296;18.960;2023-05-20T10:24:38;53237.88;;;-144.43;83.62
37486;BME280;23341;50.296;18.960;2023-05-20T10:29:44;53341.91;;;-144.43;81.75
37486;BME280;23341;50.296;18.960;2023-05-20T10:34:52;53329.91;;;-144.43;80.68
37486;BME280;23341;50.296;18.960;2023-05-20T10:40:17;53289.91;;;-144.43;81.89
37486;BME280;23341;50.296;18.960;2023-05-20T10:45:25;53473.94;;;-144.43;79.13
37486;BME280;23341;50.296;18.960;2023-05-20T10:50:35;53287.88;;;-144.43;81.42
37486;BME280;23341;50.296;18.960;2023-05-20T10:55:40;53335.91;;;-144.43;81.67
37486;BME280;23341;50.296;18.960;2023-05-20T11:00:46;53319.91;;;-144.43;82.22
37486;BME280;23341;50.296;18.960;2023-05-20T11:05:54;53431.94;;;-144.43;79.52
37486;BME280;23341;50.296;18.960;2023-05-20T11:10:58;53425.94;;;-144.43;79.83
37486;BME280;23341;50.296;18.960;2023-05-20T11:16:04;53267.88;;;-144.43;81.44
37486;BME280;23341;50.296;18.960;2023-05-20T11:21:09;53435.94;;;-144.43;71.49
37486;BME280;23341;50.296;18.960;2023-05-20T11:26:14;53437.94;;;-144.43;71.87
37486;BME280;23341;50.296;18.960;2023-05-20T11:31:19;53578.00;;;-144.43;69.39
37486;BME280;23341;50.296;18.960;2023-05-20T11:36:25;53602.00;;;-144.43;69.02
37486;BME280;23341;50.296;18.960;2023-05-20T11:41:30;53469.94;;;-144.43;70.34
37486;BME280;23341;50.296;18.960;2023-05-20T11:46:40;53642.03;;;-144.43;68.92
37486;BME280;23341;50.296;18.960;2023-05-20T11:51:46;53900.13;;;-144.43;67.28
37486;BME280;23341;50.296;18.960;2023-05-20T11:56:50;54016.19;;;-144.43;65.10
37486;BME280;23341;50.296;18.960;2023-05-20T12:01:54;53870.13;;;-144.43;64.09
37486;BME280;23341;50.296;18.960;2023-05-20T12:07:00;54062.22;;;-144.43;65.01
37486;BME280;23341;50.296;18.960;2023-05-20T12:12:06;54110.22;;;-144.43;63.01
37486;BME280;23341;50.296;18.960;2023-05-20T12:17:10;53872.13;;;-144.43;63.66
37486;BME280;23341;50.296;18.960;2023-05-20T12:22:16;53796.09;;;-144.43;63.30
37486;BME280;23341;50.296;18.960;2023-05-20T12:27:20;54162.25;;;-144.43;62.76
37486;BME280;23341;50.296;18.960;2023-05-20T12:32:26;54352.38;;;-144.43;62.08
37486;BME280;23341;50.296;18.960;2023-05-20T12:37:31;54548.47;;;-144.43;59.83
37486;BME280;23341;50.296;18.960;2023-05-20T12:42:39;54902.72;;;-144.43;57.19
37486;BME280;23341;50.296;18.960;2023-05-20T12:47:44;54730.59;;;-144.43;57.01
37486;BME280;23341;50.296;18.960;2023-05-20T12:52:49;55084.84;;;-144.43;56.44
37486;BME280;23341;50.296;18.960;2023-05-20T12:57:54;55421.13;;;-144.43;52.16
37486;BME280;23341;50.296;18.960;2023-05-20T13:02:59;55707.38;;;-144.43;48.53
37486;BME280;23341;50.296;18.960;2023-05-20T13:08:05;55691.38;;;-144.43;46.23
37486;BME280;23341;50.296;18.960;2023-05-20T13:13:11;56239.91;;;-144.43;43.72
37486;BME280;23341;50.296;18.960;2023-05-20T13:18:23;57064.84;;;-144.43;40.95
37486;BME280;23341;50.296;18.960;2023-05-20T13:23:29;56564.25;;;-144.43;41.23
37486;BME280;23341;50.296;18.960;2023-05-20T13:28:33;57124.94;;;-144.43;40.87
37486;BME280;23341;50.296;18.960;2023-05-20T13:33:38;56484.16;;;-144.43;41.06
37486;BME280;23341;50.296;18.960;2023-05-20T13:38:44;56167.81;;;-144.43;40.62
37486;BME280;23341;50.296;18.960;2023-05-20T13:43:48;55969.63;;;-144.43;41.07
37486;BME280;23341;50.296;18.960;2023-05-20T13:48:53;56350.03;;;-144.43;41.61
37486;BME280;23341;50.296;18.960;2023-05-20T13:53:59;56318.00;;;-144.43;39.49
37486;BME280;23341;50.296;18.960;2023-05-20T13:59:03;56526.22;;;-144.43;39.48
37486;BME280;23341;50.296;18.960;2023-05-20T14:04:07;56844.59;;;-144.43;39.06
37486;BME280;23341;50.296;18.960;2023-05-20T14:09:13;57080.88;;;-144.43;39.06
37486;BME280;23341;50.296;18.960;2023-05-20T14:14:18;56141.81;;;-144.43;41.27
37486;BME280;23341;50.296;18.960;2023-05-20T14:19:22;56328.00;;;-144.43;40.03
37486;BME280;23341;50.296;18.960;2023-05-20T14:24:28;55142.91;;;-144.43;43.02
37486;BME280;23341;50.296;18.960;2023-05-20T14:29:32;55783.44;;;-144.43;41.24
37486;BME280;23341;50.296;18.960;2023-05-20T14:34:36;55042.81;;;-144.43;41.97
37486;BME280;23341;50.296;18.960;2023-05-20T14:39:42;55343.06;;;-144.43;41.70
37486;BME280;23341;50.296;18.960;2023-05-20T14:44:47;54570.50;;;-144.43;43.33
37486;BME280;23341;50.296;18.960;2023-05-20T14:49:51;54634.53;;;-144.43;44.67
37486;BME280;23341;50.296;18.960;2023-05-20T14:54:58;54472.44;;;-144.43;43.47
37486;BME280;23341;50.296;18.960;2023-05-20T15:00:02;54362.38;;;-144.43;42.61
37486;BME280;23341;50.296;18.960;2023-05-20T15:05:07;54138.25;;;-144.43;43.32
37486;BME280;23341;50.296;18.960;2023-05-20T15:10:15;54486.44;;;-144.43;43.33
37486;BME280;23341;50.296;18.960;2023-05-20T15:15:20;54164.25;;;-144.43;44.34
37486;BME280;23341;50.296;18.960;2023-05-20T15:20:25;54058.22;;;-144.43;45.38
37486;BME280;23341;50.296;18.960;2023-05-20T15:25:31;53900.13;;;-144.43;47.29
37486;BME280;23341;50.296;18.960;2023-05-20T15:30:35;53730.06;;;-144.43;47.20
37486;BME280;23341;50.296;18.960;2023-05-20T15:35:40;53842.09;;;-144.43;47.63
37486;BME280;23341;50.296;18.960;2023-05-20T15:40:45;54186.28;;;-144.43;46.02
37486;BME280;23341;50.296;18.960;2023-05-20T15:45:52;53860.09;;;-144.43;47.12
37486;BME280;23341;50.296;18.960;2023-05-20T15:50:57;53934.16;;;-144.43;47.07
37486;BME280;23341;50.296;18.960;2023-05-20T15:56:03;53449.94;;;-144.43;48.90
37486;BME280;23341;50.296;18.960;2023-05-20T16:01:07;53570.00;;;-144.43;49.59
37486;BME280;23341;50.296;18.960;2023-05-20T16:06:12;53375.91;;;-144.43;49.97
37486;BME280;23341;50.296;18.960;2023-05-20T16:11:17;53031.81;;;-144.43;53.06
37486;BME280;23341;50.296;18.960;2023-05-20T16:16:23;53145.84;;;-144.43;52.59
37486;BME280;23341;50.296;18.960;2023-05-20T16:21:27;53341.91;;;-144.43;51.67
37486;BME280;23341;50.296;18.960;2023-05-20T16:26:33;53281.88;;;-144.43;52.65
37486;BME280;23341;50.296;18.960;2023-05-20T16:31:38;53063.81;;;-144.43;53.95
37486;BME280;23341;50.296;18.960;2023-05-20T16:36:42;52929.78;;;-144.43;55.55
37486;BME280;23341;50.296;18.960;2023-05-20T16:41:50;52583.75;;;-144.43;59.63
37486;BME280;23341;50.296;18.960;2023-05-20T16:46:54;52417.72;;;-144.43;62.61
37486;BME280;23341;50.296;18.960;2023-05-20T16:51:58;52347.72;;;-144.43;63.76
37486;BME280;23341;50.296;18.960;2023-05-20T16:57:05;52229.72;;;-144.43;66.12
37486;BME280;23341;50.296;18.960;2023-05-20T17:02:10;52195.72;;;-144.43;67.82
37486;BME280;23341;50.296;18.960;2023-05-20T17:07:14;52223.72;;;-144.43;69.09
37486;BME280;23341;50.296;18.960;2023-05-20T17:12:20;52183.69;;;-144.43;70.71
37486;BME280;23341;50.296;18.960;2023-05-20T17:17:25;52113.69;;;-144.43;72.02
37486;BME280;23341;50.296;18.960;2023-05-20T17:22:29;52099.69;;;-144.43;72.56
37486;BME280;23341;50.296;18.960;2023-05-20T17:27:35;52095.69;;;-144.43;73.81
37486;BME280;23341;50.296;18.960;2023-05-20T17:32:39;52105.69;;;-144.43;74.46
37486;BME280;23341;50.296;18.960;2023-05-20T17:37:44;52079.69;;;-144.43;75.74
37486;BME280;23341;50.296;18.960;2023-05-20T17:42:50;52045.69;;;-144.43;78.06
37486;BME280;23341;50.296;18.960;2023-05-20T17:47:54;52065.69;;;-144.43;78.96
37486;BME280;23341;50.296;18.960;2023-05-20T17:52:58;52059.69;;;-144.43;80.08
37486;BME280;23341;50.296;18.960;2023-05-20T17:58:04;52071.69;;;-144.43;81.58
37486;BME280;23341;50.296;18.960;2023-05-20T18:03:10;52069.69;;;-144.43;81.07
37486;BME280;23341;50.296;18.960;2023-05-20T18:08:15;52115.69;;;-144.43;83.08
37486;BME280;23341;50.296;18.960;2023-05-20T18:13:22;52065.69;;;-144.43;83.07
37486;BME280;23341;50.296;18.960;2023-05-20T18:18:27;52041.69;;;-144.43;85.04
37486;BME280;23341;50.296;18.960;2023-05-20T18:23:31;52067.69;;;-144.43;85.59
37486;BME280;23341;50.296;18.960;2023-05-20T18:28:37;52069.69;;;-144.43;86.90
37486;BME280;23341;50.296;18.960;2023-05-20T18:33:42;52137.69;;;-144.43;88.74
37486;BME280;23341;50.296;18.960;2023-05-20T18:38:47;52097.69;;;-144.43;88.90
37486;BME280;23341;50.296;18.960;2023-05-20T18:43:53;52099.69;;;-144.43;90.96
37486;BME280;23341;50.296;18.960;2023-05-20T18:48:57;52109.69;;;-144.43;92.24
37486;BME280;23341;50.296;18.960;2023-05-20T18:54:01;52133.69;;;-144.43;92.22
37486;BME280;23341;50.296;18.960;2023-05-20T18:59:08;52089.69;;;-144.43;91.82
37486;BME280;23341;50.296;18.960;2023-05-20T19:04:12;52089.69;;;-144.43;91.35
37486;BME280;23341;50.296;18.960;2023-05-20T19:09:16;52117.69;;;-144.43;92.74
37486;BME280;23341;50.296;18.960;2023-05-20T19:14:22;52125.69;;;-144.43;92.06
37486;BME280;23341;50.296;18.960;2023-05-20T19:19:27;52087.69;;;-144.43;91.05
37486;BME280;23341;50.296;18.960;2023-05-20T19:24:32;52007.69;;;-144.43;90.90
37486;BME280;23341;50.296;18.960;2023-05-20T19:29:38;51929.72;;;-144.43;90.74
37486;BME280;23341;50.296;18.960;2023-05-20T19:34:43;51917.72;;;-144.43;89.64
37486;BME280;23341;50.296;18.960;2023-05-20T19:39:48;51893.72;;;-144.43;87.63
37486;BME280;23341;50.296;18.960;2023-05-20T19:44:55;51843.72;;;-144.43;87.12
37486;BME280;23341;50.296;18.960;2023-05-20T19:49:59;51819.72;;;-144.43;86.47
37486;BME280;23341;50.296;18.960;2023-05-20T19:55:04;51733.72;;;-144.43;85.80
37486;BME280;23341;50.296;18.960;2023-05-20T20:00:11;51661.72;;;-144.43;83.65
37486;BME280;23341;50.296;18.960;2023-05-20T20:05:17;51697.72;;;-144.43;82.99
37486;BME280;23341;50.296;18.960;2023-05-20T20:10:25;51635.72;;;-144.43;83.43
37486;BME280;23341;50.296;18.960;2023-05-20T20:15:31;51619.72;;;-144.43;83.48
37486;BME280;23341;50.296;18.960;2023-05-20T20:20:36;51583.72;;;-144.43;83.81
37486;BME280;23341;50.296;18.960;2023-05-20T20:25:42;51583.72;;;-144.43;84.62
37486;BME280;23341;50.296;18.960;2023-05-20T20:30:51;51575.72;;;-144.43;85.19
37486;BME280;23341;50.296;18.960;2023-05-20T20:35:55;51525.75;;;-144.43;86.13
37486;BME280;23341;50.296;18.960;2023-05-20T20:41:00;51547.75;;;-144.43;87.13
37486;BME280;23341;50.296;18.960;2023-05-20T20:46:07;51497.75;;;-144.43;88.80
37486;BME280;23341;50.296;18.960;2023-05-20T20:51:13;51481.75;;;-144.43;89.28
37486;BME280;23341;50.296;18.960;2023-05-20T20:56:17;51489.75;;;-144.43;90.62
37486;BME280;23341;50.296;18.960;2023-05-20T21:01:23;51485.75;;;-144.43;90.93
37486;BME280;23341;50.296;18.960;2023-05-20T21:06:28;51487.75;;;-144.43;91.88
37486;BME280;23341;50.296;18.960;2023-05-20T21:11:33;51485.75;;;-144.43;92.12
37486;BME280;23341;50.296;18.960;2023-05-20T21:16:41;51481.75;;;-144.43;92.77
37486;BME280;23341;50.296;18.960;2023-05-20T21:21:46;51475.75;;;-144.43;93.81
37486;BME280;23341;50.296;18.960;2023-05-20T21:26:50;51505.75;;;-144.43;94.59
37486;BME280;23341;50.296;18.960;2023-05-20T21:31:56;51507.75;;;-144.43;95.32
37486;BME280;23341;50.296;18.960;2023-05-20T21:37:00;51499.75;;;-144.43;96.76
37486;BME280;23341;50.296;18.960;2023-05-20T21:42:05;51519.75;;;-144.43;96.29
37486;BME280;23341;50.296;18.960;2023-05-20T21:47:11;51521.75;;;-144.43;96.31
37486;BME280;23341;50.296;18.960;2023-05-20T21:52:16;51545.75;;;-144.43;97.10
37486;BME280;23341;50.296;18.960;2023-05-20T21:57:20;51543.75;;;-144.43;98.40
37486;BME280;23341;50.296;18.960;2023-05-20T22:02:26;51549.72;;;-144.43;99.42
37486;BME280;23341;50.296;18.960;2023-05-20T22:07:31;51565.72;;;-144.43;99.80
37486;BME280;23341;50.296;18.960;2023-05-20T22:12:36;51587.72;;;-144.43;100.00
37486;BME280;23341;50.296;18.960;2023-05-20T22:17:42;51623.72;;;-144.43;100.00
37486;BME280;23341;50.296;18.960;2023-05-20T22:22:49;51639.72;;;-144.43;100.00
37486;BME280;23341;50.296;18.960;2023-05-20T22:27:54;51667.72;;;-144.43;100.00
37486;BME280;23341;50.296;18.960;2023-05-20T22:32:59;51687.72;;;-144.43;100.00
37486;BME280;23341;50.296;18.960;2023-05-20T22:38:04;51703.72;;;-144.43;100.00
37486;BME280;23341;50.296;18.960;2023-05-20T22:43:08;51729.72;;;-144.43;100.00
37486;BME280;23341;50.296;18.960;2023-05-20T22:48:16;51743.72;;;-144.43;100.00
37486;BME280;23341;50.296;18.960;2023-05-20T22:53:21;51747.72;;;-144.43;100.00
37486;BME280;23341;50.296;18.960;2023-05-20T22:58:25;51847.72;;;-144.43;100.00
37486;BME280;23341;50.296;18.960;2023-05-20T23:03:33;51873.72;;;-144.43;100.00
37486;BME280;23341;50.296;18.960;2023-05-20T23:08:37;51851.72;;;-144.43;100.00
37486;BME280;23341;50.296;18.960;2023-05-20T23:13:45;51849.72;;;-144.43;100.00
37486;BME280;23341;50.296;18.960;2023-05-20T23:18:50;51877.72;;;-144.43;100.00
37486;BME280;23341;50.296;18.960;2023-05-20T23:23:55;51935.69;;;-144.43;100.00
37486;BME280;23341;50.296;18.960;2023-05-20T23:28:59;51945.69;;;-144.43;100.00
37486;BME280;23341;50.296;18.960;2023-05-20T23:34:05;51953.69;;;-144.43;100.00
37486;BME280;23341;50.296;18.960;2023-05-20T23:39:10;51981.69;;;-144.43;100.00
37486;BME280;23341;50.296;18.960;2023-05-20T23:44:14;52013.69;;;-144.43;100.00
37486;BME280;23341;50.296;18.960;2023-05-20T23:49:20;52061.69;;;-144.43;100.00
37486;BME280;23341;50.296;18.960;2023-05-20T23:54:28;52043.69;;;-144.43;100.00
37486;BME280;23341;50.296;18.960;2023-05-20T23:59:35;52061.69;;;-144.43;100.00
